Time;durP1;ratioP1;P1;durP2;ratioP2;P2;SDS_P1;SDS_P2;PMS_P1;PMS_P2;Temp;Humidity;BMP_temperature;BMP_pressure;BME280_temperature;BME280_humidity;BME280_pressure;Samples;Min_cycle;Max_cycle;Signal;HPM_P1;HPM_P2
2021/06/30 00:00:52;;;;;;;5.53;1.83;;;;;;;;;;5030745;28;20511;-64
2021/06/30 00:03:27;;;;;;;3.38;1.60;;;;;;;;;;5030976;28;20053;-64
2021/06/30 00:06:00;;;;;;;5.60;1.77;;;;;;;;;;5030295;28;20081;-65
2021/06/30 00:08:33;;;;;;;4.40;1.70;;;;;;;;;;5030099;28;20083;-64
2021/06/30 00:11:07;;;;;;;4.43;1.25;;;;;;;;;;5037761;28;20102;-64
2021/06/30 00:13:40;;;;;;;3.47;1.60;;;;;;;;;;5028272;28;20570;-64
2021/06/30 00:16:14;;;;;;;3.28;1.42;;;;;;;;;;5032419;28;20146;-64
2021/06/30 00:18:49;;;;;;;2.40;1.50;;;;;;;;;;5030257;28;20216;-64
2021/06/30 00:21:22;;;;;;;4.57;1.73;;;;;;;;;;5032599;28;20041;-64
2021/06/30 00:23:55;;;;;;;2.90;1.63;;;;;;;;;;5014201;28;20068;-64
2021/06/30 00:26:29;;;;;;;4.07;1.77;;;;;;;;;;5028970;28;20107;-64
2021/06/30 00:29:02;;;;;;;3.25;1.50;;;;;;;;;;5028321;28;20129;-64
2021/06/30 00:31:35;;;;;;;1.80;1.50;;;;;;;;;;5030417;28;20139;-64
2021/06/30 00:34:10;;;;;;;4.22;1.63;;;;;;;;;;5030193;28;20053;-64
2021/06/30 00:36:46;;;;;;;2.45;1.50;;;;;;;;;;5028717;28;20075;-64
2021/06/30 00:39:22;;;;;;;4.28;1.80;;;;;;;;;;5030131;28;20045;-64
2021/06/30 00:41:57;;;;;;;3.15;1.80;;;;;;;;;;5040971;28;20547;-65
2021/06/30 00:44:33;;;;;;;1.80;1.70;;;;;;;;;;5030375;28;20572;-64
2021/06/30 00:47:07;;;;;;;4.97;1.80;;;;;;;;;;5029751;28;20073;-65
2021/06/30 00:49:41;;;;;;;4.82;2.00;;;;;;;;;;5030073;28;20049;-64
2021/06/30 00:52:15;;;;;;;4.10;2.00;;;;;;;;;;5030031;28;20405;-64
2021/06/30 00:54:48;;;;;;;3.42;1.60;;;;;;;;;;5030032;28;20080;-64
2021/06/30 00:57:22;;;;;;;5.47;1.67;;;;;;;;;;5029872;28;20080;-64
2021/06/30 00:59:56;;;;;;;3.78;1.80;;;;;;;;;;5029596;28;20472;-65
2021/06/30 01:02:29;;;;;;;3.30;1.60;;;;;;;;;;5029753;28;20069;-64
2021/06/30 01:05:04;;;;;;;5.18;1.70;;;;;;;;;;5055980;23;20087;-91
2021/06/30 01:07:38;;;;;;;5.22;2.00;;;;;;;;;;5037454;28;20452;-91
2021/06/30 01:10:12;;;;;;;4.72;1.35;;;;;;;;;;5037192;28;20095;-91
2021/06/30 01:12:40;;;;;;;3.47;1.67;;;;;;;;;;5037948;28;20049;-90
2021/06/30 01:15:15;;;;;;;2.08;1.88;;;;;;;;;;5039137;28;20535;-89
2021/06/30 01:17:53;;;;;;;3.33;1.42;;;;;;;;;;5039178;28;20107;-89
2021/06/30 01:20:24;;;;;;;2.40;1.77;;;;;;;;;;5039236;28;20446;-89
2021/06/30 01:23:06;;;;;;;3.42;1.85;;;;;;;;;;5038389;28;20056;-89
2021/06/30 01:25:35;;;;;;;2.22;1.80;;;;;;;;;;5038311;28;20461;-89
2021/06/30 01:28:08;;;;;;;2.20;1.63;;;;;;;;;;5037380;28;20049;-89
2021/06/30 01:30:42;;;;;;;4.03;2.00;;;;;;;;;;5035385;28;20056;-89
2021/06/30 01:33:18;;;;;;;2.58;1.77;;;;;;;;;;5033877;28;20091;-89
2021/06/30 01:35:47;;;;;;;5.05;1.60;;;;;;;;;;5032225;28;20563;-89
2021/06/30 01:38:22;;;;;;;2.85;1.67;;;;;;;;;;5030450;28;20053;-89
2021/06/30 01:40:51;;;;;;;2.22;2.03;;;;;;;;;;5015445;28;20052;-89
2021/06/30 01:43:26;;;;;;;4.32;1.95;;;;;;;;;;5027681;28;20046;-89
2021/06/30 01:45:58;;;;;;;11.73;2.58;;;;;;;;;;5017347;28;20502;-89
2021/06/30 01:48:27;;;;;;;7.20;2.35;;;;;;;;;;5032377;28;20099;-89
2021/06/30 01:51:01;;;;;;;2.42;2.08;;;;;;;;;;5028020;28;20050;-89
2021/06/30 01:53:31;;;;;;;10.52;2.10;;;;;;;;;;5035958;28;20050;-89
2021/06/30 01:56:06;;;;;;;5.63;2.00;;;;;;;;;;5035455;28;20053;-89
2021/06/30 01:58:42;;;;;;;2.58;2.08;;;;;;;;;;5030466;28;20141;-89
2021/06/30 02:01:10;;;;;;;3.85;2.17;;;;;;;;;;5013642;28;20569;-89
2021/06/30 02:03:39;;;;;;;3.13;2.60;;;;;;;;;;5029422;28;20049;-89
2021/06/30 02:06:08;;;;;;;3.85;2.63;;;;;;;;;;5020582;28;20054;-89
2021/06/30 02:08:41;;;;;;;3.22;2.35;;;;;;;;;;5039537;28;20049;-90
2021/06/30 02:11:11;;;;;;;2.67;2.10;;;;;;;;;;5037115;28;20045;-89
2021/06/30 02:13:42;;;;;;;5.63;2.42;;;;;;;;;;5034460;28;20076;-89
2021/06/30 02:16:16;;;;;;;2.55;2.35;;;;;;;;;;5034047;28;20033;-89
2021/06/30 02:18:53;;;;;;;6.72;2.95;;;;;;;;;;5011285;28;20069;-89
2021/06/30 02:21:27;;;;;;;3.80;2.20;;;;;;;;;;5039254;28;20049;-90
2021/06/30 02:24:03;;;;;;;5.07;2.60;;;;;;;;;;5022825;28;20053;-90
2021/06/30 02:26:34;;;;;;;4.15;2.40;;;;;;;;;;5017947;28;20053;-90
2021/06/30 02:29:04;;;;;;;5.13;2.50;;;;;;;;;;5022627;28;20057;-90
2021/06/30 02:31:40;;;;;;;3.97;2.28;;;;;;;;;;5031204;28;20370;-90
2021/06/30 02:34:09;;;;;;;6.45;2.47;;;;;;;;;;5020895;28;20088;-90
2021/06/30 02:36:38;;;;;;;6.47;2.42;;;;;;;;;;5012443;28;20144;-90
2021/06/30 02:39:08;;;;;;;4.50;2.15;;;;;;;;;;5032737;28;20152;-90
2021/06/30 02:41:40;;;;;;;2.70;2.13;;;;;;;;;;5015169;28;20053;-90
2021/06/30 02:44:09;;;;;;;3.08;2.10;;;;;;;;;;5034613;28;20128;-90
2021/06/30 02:46:38;;;;;;;5.18;1.95;;;;;;;;;;5033731;28;20819;-90
2021/06/30 02:49:07;;;;;;;3.65;1.80;;;;;;;;;;5033032;28;20489;-90
2021/06/30 02:51:36;;;;;;;2.40;1.98;;;;;;;;;;5023865;28;20056;-90
2021/06/30 02:54:11;;;;;;;4.65;2.17;;;;;;;;;;5040118;28;20060;-90
2021/06/30 02:56:40;;;;;;;3.28;1.80;;;;;;;;;;5029551;28;20114;-90
2021/06/30 02:59:13;;;;;;;3.00;1.60;;;;;;;;;;5004779;28;20502;-90
2021/06/30 03:01:42;;;;;;;2.13;1.52;;;;;;;;;;5019588;28;20065;-90
2021/06/30 03:04:10;;;;;;;1.83;1.60;;;;;;;;;;5013715;28;20062;-90
2021/06/30 03:06:44;;;;;;;2.63;1.33;;;;;;;;;;5014214;28;20064;-90
2021/06/30 03:09:14;;;;;;;2.55;1.35;;;;;;;;;;5002525;28;20148;-89
2021/06/30 03:11:47;;;;;;;3.08;1.23;;;;;;;;;;5000157;28;20170;-90
2021/06/30 03:14:21;;;;;;;0.70;0.70;;;;;;;;;;4996399;28;20054;-90
2021/06/30 03:16:55;;;;;;;1.60;0.80;;;;;;;;;;5012238;28;20050;-90
2021/06/30 03:19:23;;;;;;;0.93;0.60;;;;;;;;;;5015116;28;20060;-90
2021/06/30 03:21:52;;;;;;;4.63;0.70;;;;;;;;;;5025273;28;20057;-90
2021/06/30 03:24:22;;;;;;;1.23;0.60;;;;;;;;;;5037416;28;20045;-90
2021/06/30 03:26:56;;;;;;;0.88;0.60;;;;;;;;;;5035444;28;20099;-90
2021/06/30 03:29:25;;;;;;;1.00;0.50;;;;;;;;;;5037649;28;20049;-90
2021/06/30 03:32:00;;;;;;;;;;;;;;;;;;5020446;28;20050;-90
2021/06/30 03:34:30;;;;;;;1.17;0.50;;;;;;;;;;5017483;28;19952;-90
2021/06/30 03:37:04;;;;;;;0.95;0.50;;;;;;;;;;5020928;28;20069;-90
2021/06/30 03:39:34;;;;;;;1.40;0.50;;;;;;;;;;5020250;28;20045;-90
2021/06/30 03:42:02;;;;;;;1.30;0.50;;;;;;;;;;5032471;28;20041;-90
2021/06/30 03:44:36;;;;;;;0.68;0.43;;;;;;;;;;5034922;28;20083;-90
2021/06/30 03:47:09;;;;;;;2.53;0.60;;;;;;;;;;5016984;28;20050;-90
2021/06/30 03:49:37;;;;;;;1.05;0.40;;;;;;;;;;5033429;28;21296;-90
2021/06/30 03:52:06;;;;;;;0.30;0.30;;;;;;;;;;5023001;28;20498;-90
2021/06/30 03:54:41;;;;;;;0.28;0.22;;;;;;;;;;5035703;28;20050;-90
2021/06/30 03:57:15;;;;;;;0.30;0.30;;;;;;;;;;5033663;28;20042;-90
2021/06/30 03:59:44;;;;;;;3.55;0.50;;;;;;;;;;5032189;28;20065;-90
2021/06/30 04:02:17;;;;;;;1.35;0.55;;;;;;;;;;5014576;28;20054;-90
2021/06/30 04:04:51;;;;;;;1.25;0.40;;;;;;;;;;5035259;28;20107;-90
2021/06/30 04:07:19;;;;;;;2.53;0.40;;;;;;;;;;5032628;28;20416;-89
2021/06/30 04:09:49;;;;;;;1.63;0.30;;;;;;;;;;5033813;28;20097;-90
2021/06/30 04:12:18;;;;;;;2.20;0.30;;;;;;;;;;5024560;28;20054;-90
2021/06/30 04:14:51;;;;;;;0.47;0.30;;;;;;;;;;5024534;28;20045;-90
2021/06/30 04:17:24;;;;;;;3.92;0.55;;;;;;;;;;5016301;28;20069;-90
2021/06/30 04:19:58;;;;;;;1.55;0.20;;;;;;;;;;5034001;28;20076;-90
2021/06/30 04:22:32;;;;;;;1.30;0.30;;;;;;;;;;5016528;28;20049;-91
2021/06/30 04:25:02;;;;;;;0.88;0.55;;;;;;;;;;5026848;28;20756;-90
2021/06/30 04:27:37;;;;;;;4.38;0.50;;;;;;;;;;5031960;28;20053;-91
2021/06/30 04:30:09;;;;;;;0.80;0.40;;;;;;;;;;5032309;28;20145;-90
2021/06/30 04:32:38;;;;;;;1.65;0.30;;;;;;;;;;5032979;28;20140;-90
2021/06/30 04:35:11;;;;;;;0.88;0.30;;;;;;;;;;5035009;28;20045;-90
2021/06/30 04:37:43;;;;;;;1.05;0.30;;;;;;;;;;5033965;28;20055;-90
2021/06/30 04:43:28;;;;;;;0.65;0.22;;;;;;;;;;5031454;28;19931;-92
2021/06/30 04:46:17;;;;;;;0.50;0.20;;;;;;;;;;5036823;28;20493;-93
2021/06/30 04:48:53;;;;;;;1.80;0.40;;;;;;;;;;5019385;28;20053;-93
2021/06/30 04:51:47;;;;;;;0.30;0.30;;;;;;;;;;5023925;28;20080;-92
2021/06/30 04:54:18;;;;;;;2.55;0.40;;;;;;;;;;5028110;28;20045;-92
2021/06/30 04:59:44;;;;;;;0.98;0.30;;;;;;;;;;5016222;28;20061;-91
2021/06/30 05:02:22;;;;;;;0.55;0.40;;;;;;;;;;5012156;28;20085;-92
2021/06/30 05:04:52;;;;;;;0.73;0.38;;;;;;;;;;5012331;28;20121;-92
2021/06/30 05:07:29;;;;;;;0.32;0.30;;;;;;;;;;4996207;28;20391;-91
2021/06/30 05:10:05;;;;;;;0.22;0.20;;;;;;;;;;5016592;28;20046;-92
2021/06/30 05:12:33;;;;;;;0.95;0.20;;;;;;;;;;5011705;28;20044;-91
2021/06/30 05:15:03;;;;;;;0.30;0.30;;;;;;;;;;5017727;28;20046;-92
2021/06/30 05:17:40;;;;;;;0.90;0.30;;;;;;;;;;5001855;28;20159;-93
2021/06/30 05:23:21;;;;;;;6.15;0.38;;;;;;;;;;5001370;28;20044;-92
2021/06/30 05:25:51;;;;;;;0.30;0.28;;;;;;;;;;4989963;28;20058;-91
2021/06/30 05:28:28;;;;;;;0.40;0.30;;;;;;;;;;5005414;28;20104;-92
2021/06/30 05:30:57;;;;;;;0.43;0.30;;;;;;;;;;5010153;28;20054;-92
2021/06/30 05:33:26;;;;;;;0.10;0.10;;;;;;;;;;5011046;28;20058;-91
2021/06/30 05:36:04;;;;;;;0.75;0.35;;;;;;;;;;5009967;28;20058;-91
2021/06/30 05:38:37;;;;;;;0.22;0.20;;;;;;;;;;5010386;28;20041;-92
2021/06/30 05:41:11;;;;;;;2.30;0.40;;;;;;;;;;5011020;28;20054;-92
2021/06/30 05:43:45;;;;;;;1.65;0.30;;;;;;;;;;5011303;28;20501;-91
2021/06/30 05:46:19;;;;;;;2.35;0.35;;;;;;;;;;5014894;28;20422;-92
2021/06/30 05:48:50;;;;;;;1.17;0.35;;;;;;;;;;5007516;28;20120;-91
2021/06/30 05:51:21;;;;;;;3.35;0.38;;;;;;;;;;5015433;28;20074;-91
2021/06/30 05:53:49;;;;;;;0.52;0.28;;;;;;;;;;5008647;28;20053;-92
2021/06/30 05:59:01;;;;;;;0.50;0.30;;;;;;;;;;4998574;28;20056;-91
2021/06/30 06:01:30;;;;;;;0.52;0.30;;;;;;;;;;5010190;28;20093;-92
2021/06/30 06:04:06;;;;;;;1.60;0.38;;;;;;;;;;4998173;28;20062;-91
2021/06/30 06:06:38;;;;;;;0.75;0.30;;;;;;;;;;4999732;28;20137;-92
2021/06/30 06:09:13;;;;;;;1.65;0.50;;;;;;;;;;5004891;28;20078;-91
2021/06/30 06:11:42;;;;;;;1.45;0.30;;;;;;;;;;5007457;28;20046;-91
2021/06/30 06:14:10;;;;;;;2.40;0.25;;;;;;;;;;5022011;28;20057;-91
2021/06/30 06:16:39;;;;;;;0.22;0.20;;;;;;;;;;5008865;28;20137;-91
2021/06/30 06:19:08;;;;;;;0.20;0.20;;;;;;;;;;5007484;28;20045;-91
2021/06/30 06:21:44;;;;;;;0.47;0.45;;;;;;;;;;5004097;28;20389;-91
2021/06/30 06:24:13;;;;;;;1.27;0.30;;;;;;;;;;5000151;28;20049;-91
2021/06/30 06:26:48;;;;;;;1.02;0.40;;;;;;;;;;4992388;28;20049;-91
2021/06/30 06:32:31;;;;;;;;;;;;;;;;;;5029586;28;20208;-95
2021/06/30 06:34:59;;;;;;;2.25;0.30;;;;;;;;;;5025824;28;19925;-94
2021/06/30 06:37:36;;;;;;;0.57;0.32;;;;;;;;;;5016279;28;20512;-95
2021/06/30 06:40:11;;;;;;;0.57;0.38;;;;;;;;;;5007012;28;20109;-95
2021/06/30 06:42:48;;;;;;;0.68;0.30;;;;;;;;;;5008811;28;20046;-94
2021/06/30 06:45:25;;;;;;;4.38;0.50;;;;;;;;;;5018737;28;20049;-95
2021/06/30 06:47:54;;;;;;;2.47;0.30;;;;;;;;;;5026347;28;20362;-95
2021/06/30 06:50:29;;;;;;;0.57;0.30;;;;;;;;;;5027351;28;20068;-95
2021/06/30 06:53:26;;;;;;;2.45;0.52;;;;;;;;;;5034773;28;20050;-95
2021/06/30 06:56:01;;;;;;;0.90;0.30;;;;;;;;;;5006415;28;20100;-95
2021/06/30 06:58:31;;;;;;;1.85;0.40;;;;;;;;;;5025030;28;20072;-95
2021/06/30 07:01:00;;;;;;;1.10;0.40;;;;;;;;;;5029751;28;20049;-94
2021/06/30 07:03:44;;;;;;;0.95;0.43;;;;;;;;;;5040971;28;20060;-94
2021/06/30 07:06:18;;;;;;;0.63;0.20;;;;;;;;;;5065770;28;20080;-94
2021/06/30 07:12:04;;;;;;;2.70;0.40;;;;;;;;;;5041179;28;20056;-94
2021/06/30 07:14:40;;;;;;;0.45;0.30;;;;;;;;;;5049359;28;20059;-95
2021/06/30 07:17:09;;;;;;;2.28;0.50;;;;;;;;;;5046675;28;20045;-95
2021/06/30 07:19:38;;;;;;;1.48;0.43;;;;;;;;;;5047356;28;20061;-94
2021/06/30 07:22:12;;;;;;;1.48;0.20;;;;;;;;;;5034477;28;20058;-94
2021/06/30 07:24:42;;;;;;;0.50;0.45;;;;;;;;;;5030130;28;20050;-94
2021/06/30 07:30:06;;;;;;;0.60;0.30;;;;;;;;;;5035389;28;20045;-94
2021/06/30 07:32:35;;;;;;;0.40;0.25;;;;;;;;;;5028936;28;20050;-91
2021/06/30 07:35:03;;;;;;;0.95;0.30;;;;;;;;;;5037768;28;20053;-91
2021/06/30 07:37:32;;;;;;;1.00;0.35;;;;;;;;;;5032383;28;20049;-90
2021/06/30 07:40:01;;;;;;;0.30;0.20;;;;;;;;;;5016124;28;20037;-91
2021/06/30 07:42:33;;;;;;;0.30;0.20;;;;;;;;;;5016257;28;20073;-91
2021/06/30 07:45:01;;;;;;;0.93;0.30;;;;;;;;;;5016766;28;20050;-91
2021/06/30 07:47:31;;;;;;;0.85;0.22;;;;;;;;;;5026995;28;20064;-91
2021/06/30 07:50:01;;;;;;;0.77;0.40;;;;;;;;;;5010049;28;20042;-91
2021/06/30 07:52:31;;;;;;;1.13;0.57;;;;;;;;;;5030080;28;20087;-91
2021/06/30 07:55:01;;;;;;;0.40;0.20;;;;;;;;;;5016546;28;20108;-91
2021/06/30 07:57:30;;;;;;;0.30;0.20;;;;;;;;;;5031926;28;20076;-91
2021/06/30 08:00:02;;;;;;;1.48;0.20;;;;;;;;;;5038900;28;20054;-93
2021/06/30 08:02:33;;;;;;;0.20;0.20;;;;;;;;;;5014391;28;20054;-92
2021/06/30 08:05:02;;;;;;;1.08;0.30;;;;;;;;;;5011796;28;20053;-92
2021/06/30 08:07:34;;;;;;;0.20;0.20;;;;;;;;;;5017686;28;20104;-92
2021/06/30 08:10:03;;;;;;;0.63;0.30;;;;;;;;;;5027576;28;20425;-93
2021/06/30 08:12:32;;;;;;;0.80;0.40;;;;;;;;;;5030554;28;20053;-91
2021/06/30 08:15:03;;;;;;;0.70;0.28;;;;;;;;;;5026068;28;20434;-91
2021/06/30 08:17:31;;;;;;;0.70;0.30;;;;;;;;;;5009999;28;20600;-91
2021/06/30 08:20:02;;;;;;;2.60;0.47;;;;;;;;;;5012671;28;20058;-91
2021/06/30 08:22:31;;;;;;;0.50;0.22;;;;;;;;;;5019999;28;20460;-91
2021/06/30 08:25:14;;;;;;;0.82;0.47;;;;;;;;;;5010730;28;20460;-92
2021/06/30 08:27:44;;;;;;;0.43;0.30;;;;;;;;;;4999934;28;20053;-91
2021/06/30 08:30:15;;;;;;;0.52;0.40;;;;;;;;;;4993896;28;20065;-91
2021/06/30 08:32:45;;;;;;;0.38;0.30;;;;;;;;;;5023247;28;20038;-94
2021/06/30 08:35:15;;;;;;;0.63;0.30;;;;;;;;;;5028827;28;20049;-92
2021/06/30 08:37:46;;;;;;;0.82;0.30;;;;;;;;;;5012490;28;20056;-93
2021/06/30 08:40:17;;;;;;;2.30;0.20;;;;;;;;;;5011579;28;20109;-92
2021/06/30 08:42:46;;;;;;;0.52;0.22;;;;;;;;;;5011825;28;20261;-92
2021/06/30 08:45:16;;;;;;;0.47;0.30;;;;;;;;;;5029768;28;20679;-92
2021/06/30 08:47:46;;;;;;;0.32;0.28;;;;;;;;;;5024260;28;20049;-92
2021/06/30 08:50:15;;;;;;;0.85;0.30;;;;;;;;;;5016921;28;20115;-92
2021/06/30 08:52:47;;;;;;;0.38;0.30;;;;;;;;;;5021024;28;20353;-92
2021/06/30 08:55:35;;;;;;;0.38;0.25;;;;;;;;;;5022995;28;20088;-91
2021/06/30 08:58:04;;;;;;;1.35;0.50;;;;;;;;;;5029415;28;20060;-91
2021/06/30 09:00:38;;;;;;;1.58;0.43;;;;;;;;;;5025291;28;20057;-92
2021/06/30 09:03:14;;;;;;;1.00;0.30;;;;;;;;;;5014676;28;20056;-91
2021/06/30 09:06:01;;;;;;;0.52;0.30;;;;;;;;;;5012044;28;20056;-92
2021/06/30 09:08:49;;;;;;;2.88;0.75;;;;;;;;;;5010663;28;20053;-92
2021/06/30 09:11:20;;;;;;;0.38;0.38;;;;;;;;;;5030678;28;20052;-91
2021/06/30 09:13:49;;;;;;;1.55;0.40;;;;;;;;;;5026017;28;20042;-92
2021/06/30 09:16:20;;;;;;;1.45;0.30;;;;;;;;;;5009286;28;20461;-92
2021/06/30 09:18:51;;;;;;;2.83;0.52;;;;;;;;;;5018861;28;20492;-92
2021/06/30 09:21:20;;;;;;;1.88;0.35;;;;;;;;;;5011201;28;20662;-92
2021/06/30 09:24:00;;;;;;;1.13;0.35;;;;;;;;;;5011397;28;20413;-92
2021/06/30 09:26:30;;;;;;;2.30;0.38;;;;;;;;;;5026567;28;20061;-92
2021/06/30 09:29:03;;;;;;;1.50;0.50;;;;;;;;;;5003198;28;20049;-92
2021/06/30 09:31:34;;;;;;;0.70;0.32;;;;;;;;;;5010418;28;20061;-91
2021/06/30 09:34:03;;;;;;;1.88;0.40;;;;;;;;;;5028530;28;20052;-92
2021/06/30 09:36:34;;;;;;;0.52;0.30;;;;;;;;;;5029721;28;20053;-92
2021/06/30 09:39:08;;;;;;;0.32;0.10;;;;;;;;;;5029354;28;20050;-93
2021/06/30 09:41:38;;;;;;;0.47;0.20;;;;;;;;;;5030430;28;20520;-92
2021/06/30 09:44:09;;;;;;;0.60;0.28;;;;;;;;;;5020875;28;20050;-92
2021/06/30 09:46:40;;;;;;;4.10;0.40;;;;;;;;;;5013152;28;20050;-92
2021/06/30 09:49:13;;;;;;;1.55;0.28;;;;;;;;;;5011383;28;20075;-92
2021/06/30 09:51:43;;;;;;;0.65;0.30;;;;;;;;;;5014247;28;20054;-92
2021/06/30 09:54:13;;;;;;;0.68;0.17;;;;;;;;;;5019238;28;20065;-92
2021/06/30 09:56:56;;;;;;;1.55;0.47;;;;;;;;;;5009424;28;20057;-92
2021/06/30 09:59:26;;;;;;;1.05;0.40;;;;;;;;;;5016530;28;20076;-92
2021/06/30 10:01:59;;;;;;;5.88;0.50;;;;;;;;;;5013475;28;20108;-92
2021/06/30 10:04:32;;;;;;;2.65;0.50;;;;;;;;;;5026910;28;20073;-92
2021/06/30 10:07:03;;;;;;;1.23;0.38;;;;;;;;;;5033344;28;20048;-92
2021/06/30 10:09:33;;;;;;;4.13;0.60;;;;;;;;;;5034562;28;20049;-92
2021/06/30 10:12:07;;;;;;;2.40;0.30;;;;;;;;;;5016562;28;20057;-92
2021/06/30 10:14:37;;;;;;;0.70;0.30;;;;;;;;;;5021670;28;20159;-92
2021/06/30 10:17:10;;;;;;;0.65;0.40;;;;;;;;;;5014821;28;20049;-92
2021/06/30 10:19:39;;;;;;;1.38;0.40;;;;;;;;;;5034246;28;20103;-92
2021/06/30 10:22:21;;;;;;;1.58;0.40;;;;;;;;;;5029494;28;20472;-92
2021/06/30 10:24:50;;;;;;;0.65;0.30;;;;;;;;;;5032608;28;20565;-92
2021/06/30 10:27:21;;;;;;;0.77;0.20;;;;;;;;;;5032354;28;20566;-92
2021/06/30 10:29:53;;;;;;;0.77;0.63;;;;;;;;;;5000127;28;20077;-92
2021/06/30 10:32:23;;;;;;;0.98;0.38;;;;;;;;;;5032823;28;20064;-92
2021/06/30 10:34:54;;;;;;;1.75;0.60;;;;;;;;;;5030031;28;20046;-93
2021/06/30 10:37:25;;;;;;;0.88;0.40;;;;;;;;;;5032402;28;20044;-92
2021/06/30 10:39:57;;;;;;;0.52;0.30;;;;;;;;;;5035822;28;20164;-92
2021/06/30 10:42:31;;;;;;;1.38;0.30;;;;;;;;;;5032393;28;20497;-92
2021/06/30 10:45:03;;;;;;;0.28;0.28;;;;;;;;;;5029469;28;20592;-92
2021/06/30 10:47:38;;;;;;;0.90;0.20;;;;;;;;;;5028097;28;20053;-92
2021/06/30 10:50:23;;;;;;;0.65;0.30;;;;;;;;;;5032405;28;20059;-92
2021/06/30 10:52:53;;;;;;;0.40;0.30;;;;;;;;;;5032230;28;20497;-92
2021/06/30 10:55:36;;;;;;;1.17;0.30;;;;;;;;;;5033509;28;20054;-92
2021/06/30 10:58:20;;;;;;;4.13;0.85;;;;;;;;;;5027915;28;20547;-92
2021/06/30 11:00:50;;;;;;;3.15;0.43;;;;;;;;;;5007082;28;20049;-92
2021/06/30 11:03:25;;;;;;;1.92;0.50;;;;;;;;;;5022704;28;20046;-92
2021/06/30 11:05:55;;;;;;;0.40;0.30;;;;;;;;;;5028616;28;20045;-92
2021/06/30 11:08:42;;;;;;;0.77;0.30;;;;;;;;;;5027981;28;20053;-89
2021/06/30 11:11:11;;;;;;;0.52;0.17;;;;;;;;;;5016598;28;20092;-89
2021/06/30 11:14:03;;;;;;;0.20;0.20;;;;;;;;;;5032560;28;20141;-90
2021/06/30 11:16:51;;;;;;;0.75;0.20;;;;;;;;;;5028968;28;20667;-91
2021/06/30 11:19:38;;;;;;;0.35;0.22;;;;;;;;;;5019664;28;20258;-91
2021/06/30 11:22:22;;;;;;;4.68;0.50;;;;;;;;;;5030578;28;20140;-91
2021/06/30 11:24:51;;;;;;;0.80;0.30;;;;;;;;;;5032237;28;20155;-91
2021/06/30 11:27:40;;;;;;;0.93;0.40;;;;;;;;;;5030903;28;20364;-91
2021/06/30 11:30:10;;;;;;;1.35;0.50;;;;;;;;;;5029427;28;20408;-91
2021/06/30 11:32:46;;;;;;;0.30;0.30;;;;;;;;;;5015458;28;20045;-91
2021/06/30 11:35:23;;;;;;;1.38;0.35;;;;;;;;;;5031530;28;20071;-90
2021/06/30 11:38:05;;;;;;;0.40;0.40;;;;;;;;;;5013075;28;20701;-91
2021/06/30 11:40:36;;;;;;;0.88;0.65;;;;;;;;;;5030066;28;20081;-91
2021/06/30 11:43:12;;;;;;;4.70;2.78;;;;;;;;;;5012381;28;20159;-91
2021/06/30 11:45:40;;;;;;;5.03;2.03;;;;;;;;;;5014719;28;20050;-91
2021/06/30 11:48:10;;;;;;;2.28;0.60;;;;;;;;;;5045196;28;20327;-91
2021/06/30 11:50:59;;;;;;;5.50;2.53;;;;;;;;;;5032191;28;20101;-92
2021/06/30 11:53:55;;;;;;;4.25;1.55;;;;;;;;;;5033636;28;20056;-91
2021/06/30 11:56:38;;;;;;;2.10;1.02;;;;;;;;;;5011821;28;20045;-91
2021/06/30 11:59:09;;;;;;;2.72;0.80;;;;;;;;;;5032034;28;20409;-90
2021/06/30 12:01:39;;;;;;;2.03;1.00;;;;;;;;;;5030614;28;20053;-91
2021/06/30 12:04:15;;;;;;;2.42;1.10;;;;;;;;;;5031339;28;20069;-90
2021/06/30 12:06:48;;;;;;;0.80;0.60;;;;;;;;;;5031389;28;20057;-91
2021/06/30 12:09:21;;;;;;;2.30;0.30;;;;;;;;;;5030809;28;20585;-90
2021/06/30 12:11:52;;;;;;;0.30;0.28;;;;;;;;;;5031648;28;20076;-92
2021/06/30 12:14:25;;;;;;;1.30;0.50;;;;;;;;;;5012605;28;20129;-93
2021/06/30 12:16:55;;;;;;;4.25;0.80;;;;;;;;;;5019346;28;20074;-91
2021/06/30 12:19:34;;;;;;;0.65;0.38;;;;;;;;;;5027913;28;20129;-91
2021/06/30 12:22:04;;;;;;;1.15;0.43;;;;;;;;;;5012365;28;20054;-90
2021/06/30 12:24:34;;;;;;;2.03;0.55;;;;;;;;;;5021302;28;20057;-91
2021/06/30 12:27:06;;;;;;;2.65;0.60;;;;;;;;;;5016610;28;20057;-91
2021/06/30 12:29:37;;;;;;;2.03;0.40;;;;;;;;;;5032163;28;20057;-91
2021/06/30 12:32:07;;;;;;;0.70;0.47;;;;;;;;;;5023988;28;20061;-91
2021/06/30 12:34:36;;;;;;;1.02;0.60;;;;;;;;;;5031082;28;20336;-91
2021/06/30 12:37:05;;;;;;;0.55;0.40;;;;;;;;;;5024517;28;20049;-91
2021/06/30 12:39:44;;;;;;;1.17;0.77;;;;;;;;;;5027041;28;20046;-92
2021/06/30 12:42:19;;;;;;;1.50;0.50;;;;;;;;;;4766402;28;10000546;-92
2021/06/30 12:44:56;;;;;;;1.92;0.50;;;;;;;;;;692902;28;10002062;-92
2021/06/30 12:47:26;;;;;;;1.35;0.50;;;;;;;;;;5046986;28;20471;-91
2021/06/30 12:49:58;;;;;;;0.82;0.50;;;;;;;;;;5036945;28;20045;-91
2021/06/30 12:52:27;;;;;;;2.30;0.70;;;;;;;;;;5022886;28;20053;-91
2021/06/30 12:55:03;;;;;;;4.18;0.70;;;;;;;;;;5015907;28;20061;-91
2021/06/30 12:57:32;;;;;;;2.35;0.70;;;;;;;;;;5029600;28;20060;-91
2021/06/30 13:00:16;;;;;;;4.85;1.20;;;;;;;;;;5016489;28;20042;-92
2021/06/30 13:03:08;;;;;;;3.80;1.00;;;;;;;;;;5017983;28;20131;-92
2021/06/30 13:05:40;;;;;;;2.67;0.95;;;;;;;;;;5016898;28;20058;-91
2021/06/30 13:08:30;;;;;;;2.42;0.90;;;;;;;;;;5033295;28;20081;-92
2021/06/30 13:11:04;;;;;;;1.77;0.82;;;;;;;;;;5014531;28;20054;-91
2021/06/30 13:14:03;;;;;;;1.63;0.68;;;;;;;;;;5018533;28;20452;-91
2021/06/30 13:16:34;;;;;;;5.82;1.45;;;;;;;;;;5032014;28;20109;-91
2021/06/30 13:19:05;;;;;;;2.20;0.95;;;;;;;;;;5016408;28;20111;-92
2021/06/30 13:21:37;;;;;;;3.25;1.25;;;;;;;;;;5032729;28;20108;-92
2021/06/30 13:24:25;;;;;;;3.38;0.65;;;;;;;;;;5029146;28;20063;-92
2021/06/30 13:35:30;;;;;;;1.65;0.82;;;;;;;;;;5030163;28;20053;-93
2021/06/30 13:37:59;;;;;;;2.03;1.00;;;;;;;;;;5014742;28;20053;-92
2021/06/30 13:40:31;;;;;;;2.97;0.80;;;;;;;;;;5017924;28;20049;-92
2021/06/30 13:43:02;;;;;;;1.60;0.50;;;;;;;;;;5033357;28;20053;-92
2021/06/30 13:45:35;;;;;;;2.25;0.73;;;;;;;;;;5031387;28;20519;-92
2021/06/30 13:48:09;;;;;;;2.75;0.80;;;;;;;;;;5011824;28;20054;-92
2021/06/30 13:50:40;;;;;;;1.98;0.65;;;;;;;;;;5017272;28;20052;-92
2021/06/30 13:53:13;;;;;;;1.80;0.80;;;;;;;;;;5017760;28;20061;-92
2021/06/30 13:55:43;;;;;;;2.90;0.98;;;;;;;;;;5031523;28;20050;-92
2021/06/30 13:58:14;;;;;;;1.92;0.70;;;;;;;;;;5034772;28;20045;-92
2021/06/30 14:00:43;;;;;;;1.25;0.73;;;;;;;;;;5016365;28;20551;-92
2021/06/30 14:03:13;;;;;;;2.22;0.70;;;;;;;;;;5025767;28;20124;-92
2021/06/30 14:05:42;;;;;;;1.23;0.75;;;;;;;;;;5031174;28;20049;-92
2021/06/30 14:08:14;;;;;;;1.10;0.60;;;;;;;;;;5030289;28;20053;-91
2021/06/30 14:10:44;;;;;;;2.00;0.60;;;;;;;;;;5023847;28;20084;-90
2021/06/30 14:13:16;;;;;;;2.22;0.63;;;;;;;;;;5028445;28;20489;-91
2021/06/30 14:15:46;;;;;;;1.05;0.65;;;;;;;;;;5024722;28;20086;-90
2021/06/30 14:18:15;;;;;;;0.80;0.60;;;;;;;;;;5013491;28;20053;-91
2021/06/30 14:20:45;;;;;;;1.25;0.80;;;;;;;;;;5013327;28;20057;-90
2021/06/30 14:23:15;;;;;;;3.53;0.52;;;;;;;;;;5018206;28;20038;-91
2021/06/30 14:25:45;;;;;;;4.07;0.90;;;;;;;;;;5031179;28;20093;-91
2021/06/30 14:28:26;;;;;;;3.83;0.68;;;;;;;;;;5033658;28;20049;-91
2021/06/30 14:30:55;;;;;;;0.65;0.50;;;;;;;;;;5027729;28;20049;-90
2021/06/30 14:37:06;;;;;;;2.22;0.43;;;;;;;;;;5023203;28;20060;-92
2021/06/30 14:39:36;;;;;;;2.10;0.50;;;;;;;;;;5033049;28;20054;-91
2021/06/30 14:42:07;;;;;;;2.40;0.80;;;;;;;;;;5032562;28;20076;-90
2021/06/30 14:44:37;;;;;;;2.97;0.52;;;;;;;;;;5032200;28;20053;-90
2021/06/30 14:47:07;;;;;;;1.67;0.63;;;;;;;;;;5010222;28;20468;-91
2021/06/30 14:49:36;;;;;;;1.67;0.50;;;;;;;;;;5034883;28;20057;-91
2021/06/30 14:52:06;;;;;;;1.02;0.50;;;;;;;;;;5036463;28;20143;-91
2021/06/30 14:54:35;;;;;;;0.63;0.52;;;;;;;;;;5036699;28;20061;-91
2021/06/30 14:57:04;;;;;;;0.77;0.60;;;;;;;;;;5017717;28;20099;-91
2021/06/30 14:59:34;;;;;;;0.88;0.50;;;;;;;;;;5035547;28;20060;-91
2021/06/30 15:02:07;;;;;;;2.53;0.63;;;;;;;;;;5027720;28;20045;-91
2021/06/30 15:04:44;;;;;;;1.10;0.50;;;;;;;;;;5052359;28;20412;-90
2021/06/30 15:07:13;;;;;;;0.40;0.35;;;;;;;;;;5020523;28;20544;-91
2021/06/30 15:09:42;;;;;;;1.88;0.32;;;;;;;;;;5031999;28;20042;-91
2021/06/30 15:12:16;;;;;;;0.93;0.50;;;;;;;;;;5023563;28;20045;-91
2021/06/30 15:14:45;;;;;;;2.33;0.60;;;;;;;;;;5031310;28;20041;-91
2021/06/30 15:17:22;;;;;;;1.38;0.50;;;;;;;;;;5027238;28;20041;-91
2021/06/30 15:19:54;;;;;;;1.50;0.40;;;;;;;;;;5019325;28;20050;-92
2021/06/30 15:22:23;;;;;;;20.23;1.08;;;;;;;;;;5035497;28;20456;-92
2021/06/30 15:24:55;;;;;;;1.60;0.77;;;;;;;;;;5018983;28;20053;-90
2021/06/30 15:27:24;;;;;;;2.22;0.90;;;;;;;;;;5018976;28;20103;-91
2021/06/30 15:30:00;;;;;;;2.25;0.50;;;;;;;;;;5034722;28;20046;-92
2021/06/30 15:32:32;;;;;;;1.15;0.40;;;;;;;;;;5024513;28;20462;-92
2021/06/30 15:35:02;;;;;;;0.80;0.60;;;;;;;;;;5034176;28;20488;-92
2021/06/30 15:37:32;;;;;;;2.47;1.00;;;;;;;;;;5014980;28;20082;-92
2021/06/30 15:40:05;;;;;;;1.23;0.60;;;;;;;;;;5032345;28;20060;-92
2021/06/30 15:42:34;;;;;;;2.90;0.70;;;;;;;;;;5035463;28;20595;-92
2021/06/30 15:45:05;;;;;;;0.80;0.50;;;;;;;;;;5032466;28;20136;-92
2021/06/30 15:47:36;;;;;;;1.23;0.52;;;;;;;;;;5015677;28;20053;-91
2021/06/30 15:50:07;;;;;;;0.93;0.60;;;;;;;;;;5005539;28;20399;-92